createdAt,value
2019-06-26T00:01:05.511Z,22.60
2019-06-26T00:03:36.882Z,22.60
2019-06-26T00:06:08.246Z,22.60
2019-06-26T00:08:39.658Z,22.60
2019-06-26T00:11:11.039Z,22.50
2019-06-26T00:13:42.393Z,22.40
2019-06-26T00:16:13.699Z,22.50
2019-06-26T00:18:46.115Z,22.50
2019-06-26T00:21:17.427Z,22.60
2019-06-26T00:23:48.768Z,22.50
2019-06-26T00:26:20.031Z,22.50
2019-06-26T00:28:51.298Z,22.40
2019-06-26T00:31:22.522Z,22.20
2019-06-26T00:33:53.802Z,22.20
2019-06-26T00:36:25.039Z,22.30
2019-06-26T00:38:56.323Z,22.30
2019-06-26T00:41:27.597Z,22.30
2019-06-26T00:43:58.836Z,22.30
2019-06-26T00:46:30.082Z,22.20
2019-06-26T00:49:01.393Z,22.10
2019-06-26T00:51:32.730Z,22.10
2019-06-26T00:54:05.048Z,22.00
2019-06-26T00:56:36.382Z,21.90
2019-06-26T00:59:07.675Z,21.90
2019-06-26T01:01:38.930Z,21.80
2019-06-26T01:04:14.756Z,21.70
2019-06-26T01:06:46.022Z,21.70
2019-06-26T01:09:18.749Z,21.70
2019-06-26T01:11:49.913Z,21.50
2019-06-26T01:14:21.179Z,21.50
2019-06-26T01:16:52.395Z,21.40
2019-06-26T01:19:23.693Z,21.60
2019-06-26T01:21:55.009Z,21.70
2019-06-26T01:24:26.307Z,21.70
2019-06-26T01:26:57.608Z,21.80
2019-06-26T01:29:31.842Z,21.80
2019-06-26T01:32:01.889Z,22.10
2019-06-26T01:34:33.111Z,22.30
2019-06-26T01:37:04.219Z,22.50
2019-06-26T01:39:35.374Z,22.10
2019-06-26T01:42:06.431Z,21.80
2019-06-26T01:44:37.561Z,21.80
2019-06-26T01:47:08.678Z,21.70
2019-06-26T01:49:39.882Z,21.60
2019-06-26T01:52:10.976Z,21.90
2019-06-26T01:54:42.091Z,21.70
2019-06-26T01:57:13.211Z,21.50
2019-06-26T01:59:44.360Z,21.40
2019-06-26T02:02:16.520Z,21.30
2019-06-26T02:04:47.631Z,21.20
2019-06-26T02:07:18.717Z,21.20
2019-06-26T02:09:49.866Z,21.20
2019-06-26T02:12:21.343Z,21.30
2019-06-26T02:14:52.491Z,21.30
2019-06-26T02:17:23.588Z,21.10
2019-06-26T02:19:54.699Z,21.10
2019-06-26T02:22:25.800Z,21.10
2019-06-26T02:24:56.909Z,21.20
2019-06-26T02:27:28.051Z,21.20
2019-06-26T02:29:59.173Z,21.30
2019-06-26T02:32:30.277Z,21.20
2019-06-26T02:35:01.397Z,21.20
2019-06-26T02:37:32.770Z,21.20
2019-06-26T02:40:03.922Z,21.30
2019-06-26T02:42:35.015Z,21.30
2019-06-26T02:45:06.815Z,21.20
2019-06-26T02:47:38.047Z,21.00
2019-06-26T02:50:09.369Z,21.00
2019-06-26T02:52:40.458Z,21.00
2019-06-26T02:55:11.590Z,20.90
2019-06-26T02:57:42.667Z,20.80
2019-06-26T03:00:13.854Z,20.80
2019-06-26T03:02:44.940Z,20.80
2019-06-26T03:05:16.245Z,20.80
2019-06-26T03:07:47.327Z,20.70
2019-06-26T03:10:18.590Z,20.70
2019-06-26T03:12:49.673Z,20.70
2019-06-26T03:15:20.771Z,20.70
2019-06-26T03:17:55.613Z,20.70
2019-06-26T03:20:29.393Z,20.80
2019-06-26T03:23:00.489Z,20.80
2019-06-26T03:25:31.620Z,20.80
2019-06-26T03:28:02.707Z,20.80
2019-06-26T03:30:34.247Z,21.00
2019-06-26T03:33:06.721Z,21.00
2019-06-26T03:35:40.759Z,21.10
2019-06-26T03:38:10.632Z,21.10
2019-06-26T03:40:41.745Z,21.10
2019-06-26T03:43:12.859Z,21.20
2019-06-26T03:45:43.982Z,21.10
2019-06-26T03:48:15.065Z,21.00
2019-06-26T03:50:46.183Z,21.20
2019-06-26T03:53:17.278Z,21.30
2019-06-26T03:55:49.489Z,21.30
2019-06-26T03:58:21.658Z,21.40
2019-06-26T04:00:52.768Z,21.40
2019-06-26T04:03:23.881Z,21.30
2019-06-26T04:05:54.999Z,21.50
2019-06-26T04:08:27.175Z,21.60
2019-06-26T04:10:58.288Z,21.50
2019-06-26T04:13:29.382Z,21.40
2019-06-26T04:16:00.508Z,21.40
2019-06-26T04:18:31.983Z,21.50
2019-06-26T04:21:03.099Z,21.60
2019-06-26T04:23:34.182Z,21.50
2019-06-26T04:26:05.308Z,21.60
2019-06-26T04:28:36.422Z,21.60
2019-06-26T04:31:07.664Z,21.70
2019-06-26T04:33:38.746Z,21.80
2019-06-26T04:36:09.936Z,21.80
2019-06-26T04:38:41.052Z,21.80
2019-06-26T04:41:12.165Z,21.80
2019-06-26T04:43:43.290Z,21.90
2019-06-26T04:46:14.409Z,21.90
2019-06-26T04:48:45.504Z,21.90
2019-06-26T04:51:16.650Z,22.00
2019-06-26T04:53:47.933Z,22.00
2019-06-26T04:56:19.053Z,22.10
2019-06-26T04:58:50.185Z,22.20
2019-06-26T05:01:21.331Z,22.30
2019-06-26T05:03:52.403Z,22.30
2019-06-26T05:06:23.510Z,22.40
2019-06-26T05:08:54.630Z,22.70
2019-06-26T05:11:25.743Z,22.80
2019-06-26T05:13:56.862Z,23.10
2019-06-26T05:16:28.400Z,23.30
2019-06-26T05:18:59.539Z,23.50
2019-06-26T05:21:30.652Z,23.70
2019-06-26T05:24:01.768Z,24.20
2019-06-26T05:26:32.881Z,24.30
2019-06-26T05:29:03.963Z,24.70
2019-06-26T05:31:35.072Z,25.80
2019-06-26T05:34:06.155Z,26.90
2019-06-26T05:36:37.262Z,28.70
2019-06-26T05:39:08.724Z,30.00
2019-06-26T05:41:39.842Z,31.00
2019-06-26T05:44:10.937Z,31.70
2019-06-26T05:46:42.028Z,32.10
2019-06-26T05:49:13.136Z,32.20
2019-06-26T05:51:44.240Z,31.90
2019-06-26T05:54:15.415Z,32.50
2019-06-26T05:56:46.511Z,33.70
2019-06-26T05:59:17.622Z,33.60
2019-06-26T06:01:48.730Z,33.60
2019-06-26T06:04:19.834Z,35.00
2019-06-26T06:06:50.931Z,35.00
2019-06-26T06:09:22.053Z,35.40
2019-06-26T06:11:53.137Z,36.00
2019-06-26T06:14:24.237Z,36.60
2019-06-26T06:16:55.343Z,37.30
2019-06-26T06:19:27.523Z,38.30
2019-06-26T06:21:58.615Z,38.50
2019-06-26T06:24:29.759Z,37.50
2019-06-26T06:27:00.848Z,37.50
2019-06-26T06:29:31.952Z,37.40
2019-06-26T06:32:03.046Z,36.30
2019-06-26T06:34:34.152Z,36.00
2019-06-26T06:37:06.327Z,36.20
2019-06-26T06:39:37.454Z,36.70
2019-06-26T06:42:08.577Z,36.90
2019-06-26T06:44:39.712Z,37.30
2019-06-26T06:47:10.804Z,37.80
2019-06-26T06:49:41.917Z,38.50
2019-06-26T06:52:16.475Z,39.00
2019-06-26T06:54:45.828Z,39.50
2019-06-26T06:57:16.909Z,40.10
2019-06-26T06:59:48.117Z,40.20
2019-06-26T07:02:19.196Z,40.00
2019-06-26T07:04:50.302Z,40.50
2019-06-26T07:07:21.382Z,40.60
2019-06-26T07:09:52.577Z,39.40
2019-06-26T07:12:23.688Z,39.80
2019-06-26T07:14:54.817Z,41.50
2019-06-26T07:17:25.998Z,40.40
2019-06-26T07:19:57.093Z,40.20
2019-06-26T07:22:28.528Z,39.90
2019-06-26T07:24:59.619Z,41.20
2019-06-26T07:27:30.724Z,42.20
2019-06-26T07:30:01.897Z,41.10
2019-06-26T07:32:34.111Z,42.70
2019-06-26T07:35:05.923Z,42.80
2019-06-26T07:37:37.031Z,41.50
2019-06-26T07:40:08.141Z,43.00
2019-06-26T07:42:39.268Z,42.20
2019-06-26T07:45:10.377Z,42.30
2019-06-26T07:47:43.850Z,41.30
2019-06-26T07:50:14.383Z,41.90
2019-06-26T07:52:45.513Z,41.70
2019-06-26T07:55:16.600Z,41.40
2019-06-26T07:57:47.708Z,41.40
2019-06-26T08:00:19.598Z,41.70
2019-06-26T08:02:50.716Z,42.00
2019-06-26T08:05:21.816Z,42.40
2019-06-26T08:07:52.942Z,42.90
2019-06-26T08:10:24.023Z,42.10
2019-06-26T08:12:55.347Z,42.20
2019-06-26T08:15:26.448Z,42.20
2019-06-26T08:18:00.977Z,41.10
2019-06-26T08:20:30.341Z,39.80
2019-06-26T08:23:01.486Z,40.00
2019-06-26T08:25:32.561Z,41.10
2019-06-26T08:28:03.677Z,41.20
2019-06-26T08:30:34.770Z,41.80
2019-06-26T08:33:05.916Z,41.60
2019-06-26T08:35:37.010Z,41.30
2019-06-26T08:38:12.510Z,41.50
2019-06-26T08:40:40.916Z,42.80
2019-06-26T08:43:12.059Z,42.30
2019-06-26T08:45:43.156Z,42.20
2019-06-26T08:48:28.241Z,42.10
2019-06-26T08:50:47.071Z,41.60
2019-06-26T08:53:18.195Z,42.30
2019-06-26T08:55:49.285Z,42.40
2019-06-26T08:58:20.424Z,42.80
2019-06-26T09:00:51.516Z,42.90
2019-06-26T09:03:22.645Z,42.30
2019-06-26T09:05:53.738Z,42.10
2019-06-26T09:08:26.049Z,42.60
2019-06-26T09:10:57.314Z,43.00
2019-06-26T09:13:28.432Z,42.60
2019-06-26T09:15:59.511Z,41.70
2019-06-26T09:18:35.420Z,41.60
2019-06-26T09:21:03.433Z,41.40
2019-06-26T09:23:34.557Z,41.90
2019-06-26T09:26:05.680Z,42.30
2019-06-26T09:28:36.805Z,42.30
2019-06-26T09:31:07.982Z,42.20
2019-06-26T09:33:39.142Z,42.10
2019-06-26T09:36:10.237Z,42.20
2019-06-26T09:38:41.372Z,42.30
2019-06-26T09:41:12.462Z,42.70
2019-06-26T09:43:43.602Z,42.80
2019-06-26T09:46:14.714Z,43.70
2019-06-26T09:48:52.574Z,44.00
2019-06-26T09:51:18.635Z,42.40
2019-06-26T09:53:49.752Z,42.50
2019-06-26T09:56:20.938Z,42.60
2019-06-26T09:58:52.079Z,42.50
2019-06-26T10:01:23.174Z,43.30
2019-06-26T10:03:54.289Z,43.30
2019-06-26T10:06:25.396Z,42.20
2019-06-26T10:08:56.640Z,41.70
2019-06-26T10:11:27.741Z,42.20
2019-06-26T10:13:58.859Z,42.40
2019-06-26T10:16:29.962Z,42.60
2019-06-26T10:19:09.931Z,42.70
2019-06-26T10:21:33.849Z,43.10
2019-06-26T10:24:04.969Z,43.60
2019-06-26T10:26:36.067Z,42.40
2019-06-26T10:29:07.234Z,41.80
2019-06-26T10:31:38.373Z,41.40
2019-06-26T10:34:10.320Z,42.20
2019-06-26T10:36:41.793Z,41.90
2019-06-26T10:39:12.899Z,41.80
2019-06-26T10:41:44.081Z,41.90
2019-06-26T10:44:15.193Z,42.50
2019-06-26T10:46:46.290Z,42.60
2019-06-26T10:49:26.885Z,42.80
2019-06-26T10:51:50.191Z,43.30
2019-06-26T10:54:21.307Z,42.50
2019-06-26T10:56:52.396Z,42.10
2019-06-26T10:59:24.686Z,41.70
2019-06-26T11:01:55.777Z,41.10
2019-06-26T11:04:26.934Z,41.20
2019-06-26T11:06:58.520Z,41.30
2019-06-26T11:09:29.665Z,41.20
2019-06-26T11:12:00.761Z,40.10
2019-06-26T11:14:31.885Z,39.80
2019-06-26T11:17:02.988Z,40.00
2019-06-26T11:19:43.874Z,39.90
2019-06-26T11:22:06.925Z,39.60
2019-06-26T11:24:39.009Z,39.20
2019-06-26T11:27:10.132Z,39.20
2019-06-26T11:29:41.285Z,38.70
2019-06-26T11:32:12.400Z,38.50
2019-06-26T11:34:43.516Z,38.50
2019-06-26T11:37:14.667Z,38.50
2019-06-26T11:39:45.785Z,38.50
2019-06-26T11:42:16.912Z,38.10
2019-06-26T11:44:48.045Z,38.50
2019-06-26T11:47:19.226Z,38.50
2019-06-26T11:49:59.957Z,38.50
2019-06-26T11:52:23.141Z,38.50
2019-06-26T11:55:02.457Z,38.10
2019-06-26T11:57:27.050Z,37.70
2019-06-26T11:59:58.163Z,37.60
2019-06-26T12:02:29.262Z,37.60
2019-06-26T12:05:00.394Z,38.00
2019-06-26T12:07:31.502Z,37.70
2019-06-26T12:10:02.741Z,38.10
2019-06-26T12:12:33.921Z,38.50
2019-06-26T12:15:05.745Z,38.50
2019-06-26T12:17:36.843Z,38.50
2019-06-26T12:20:18.393Z,38.40
2019-06-26T12:22:40.752Z,38.40
2019-06-26T12:25:11.860Z,38.10
2019-06-26T12:27:42.994Z,37.80
2019-06-26T12:30:14.817Z,37.90
2019-06-26T12:33:01.481Z,37.80
2019-06-26T12:35:19.101Z,38.10
2019-06-26T12:37:50.266Z,37.70
2019-06-26T12:40:21.432Z,38.00
2019-06-26T12:42:55.662Z,37.40
2019-06-26T12:45:25.358Z,37.40
2019-06-26T12:47:56.446Z,37.60
2019-06-26T12:50:35.184Z,37.70
2019-06-26T12:53:00.388Z,37.60
2019-06-26T12:55:33.076Z,37.60
2019-06-26T12:58:13.120Z,37.30
2019-06-26T13:00:38.250Z,37.50
2019-06-26T13:03:09.345Z,37.40
2019-06-26T13:05:40.477Z,37.40
2019-06-26T13:08:11.582Z,37.40
2019-06-26T13:10:49.826Z,37.50
2019-06-26T13:13:16.667Z,37.80
2019-06-26T13:15:50.925Z,37.60
2019-06-26T13:18:20.589Z,37.70
2019-06-26T13:20:53.817Z,37.90
2019-06-26T13:23:25.037Z,37.40
2019-06-26T13:25:56.164Z,37.70
2019-06-26T13:28:27.252Z,38.10
2019-06-26T13:30:58.407Z,38.20
2019-06-26T13:33:29.511Z,37.60
2019-06-26T13:36:00.671Z,37.70
2019-06-26T13:38:31.767Z,38.10
2019-06-26T13:41:02.925Z,38.10
2019-06-26T13:43:34.016Z,38.10
2019-06-26T13:46:05.132Z,37.70
2019-06-26T13:48:36.323Z,38.00
2019-06-26T13:51:09.912Z,38.10
2019-06-26T13:53:40.228Z,37.80
2019-06-26T13:56:11.785Z,37.70
2019-06-26T13:58:42.922Z,38.00
2019-06-26T14:01:14.022Z,38.20
2019-06-26T14:03:45.152Z,38.40
2019-06-26T14:06:16.379Z,38.50
2019-06-26T14:08:47.443Z,38.50
2019-06-26T14:11:18.549Z,38.50
2019-06-26T14:13:49.683Z,38.60
2019-06-26T14:16:20.806Z,38.60
2019-06-26T14:18:51.905Z,38.30
2019-06-26T14:21:26.040Z,38.20
2019-06-26T14:23:55.843Z,38.30
2019-06-26T14:26:26.937Z,38.30
2019-06-26T14:28:58.078Z,38.40
2019-06-26T14:31:30.248Z,38.50
2019-06-26T14:34:01.370Z,38.10
2019-06-26T14:36:32.477Z,38.00
2019-06-26T14:39:04.643Z,38.20
2019-06-26T14:41:39.236Z,38.30
2019-06-26T14:44:09.990Z,38.40
2019-06-26T14:46:41.133Z,38.30
2019-06-26T14:49:12.263Z,37.70
2019-06-26T14:51:47.389Z,37.80
2019-06-26T14:54:16.210Z,37.90
2019-06-26T14:56:47.347Z,38.20
2019-06-26T14:59:18.705Z,38.10
2019-06-26T15:01:49.885Z,37.90
2019-06-26T15:04:21.013Z,37.70
2019-06-26T15:06:52.112Z,37.70
2019-06-26T15:09:23.235Z,37.60
2019-06-26T15:11:54.332Z,37.70
2019-06-26T15:14:25.799Z,37.70
2019-06-26T15:16:56.913Z,37.80
2019-06-26T15:19:28.005Z,37.60
2019-06-26T15:21:59.200Z,38.00
2019-06-26T15:24:30.269Z,38.20
2019-06-26T15:27:01.384Z,38.30
2019-06-26T15:29:32.512Z,38.10
2019-06-26T15:32:03.662Z,37.90
2019-06-26T15:34:34.761Z,37.50
2019-06-26T15:37:05.888Z,37.60
2019-06-26T15:39:37.042Z,37.50
2019-06-26T15:42:08.179Z,37.70
2019-06-26T15:44:39.272Z,37.70
2019-06-26T15:47:10.397Z,37.70
2019-06-26T15:49:41.529Z,37.80
2019-06-26T15:52:15.277Z,37.90
2019-06-26T15:54:45.445Z,37.80
2019-06-26T15:57:16.569Z,37.40
2019-06-26T15:59:47.740Z,37.20
2019-06-26T16:02:18.860Z,37.40
2019-06-26T16:04:50.374Z,37.30
2019-06-26T16:07:21.527Z,37.30
2019-06-26T16:09:52.611Z,37.20
2019-06-26T16:12:23.728Z,36.90
2019-06-26T16:14:54.833Z,36.80
2019-06-26T16:17:35.601Z,36.80
2019-06-26T16:20:07.095Z,37.10
2019-06-26T16:22:38.233Z,37.30
2019-06-26T16:25:09.360Z,37.30
2019-06-26T16:27:41.288Z,37.30
2019-06-26T16:30:13.953Z,37.20
2019-06-26T16:32:45.110Z,36.80
2019-06-26T16:35:17.687Z,37.00
2019-06-26T16:37:48.840Z,37.00
2019-06-26T16:40:19.947Z,36.80
2019-06-26T16:42:51.066Z,36.70
2019-06-26T16:45:22.168Z,36.60
2019-06-26T16:47:53.293Z,36.60
2019-06-26T16:50:24.388Z,36.70
2019-06-26T16:52:55.528Z,36.50
2019-06-26T16:55:26.632Z,36.40
2019-06-26T16:57:57.754Z,36.30
2019-06-26T17:00:28.860Z,36.20
2019-06-26T17:02:59.985Z,35.90
2019-06-26T17:05:31.103Z,35.80
2019-06-26T17:08:02.247Z,35.80
2019-06-26T17:10:33.610Z,35.70
2019-06-26T17:13:04.880Z,35.80
2019-06-26T17:15:35.976Z,35.80
2019-06-26T17:18:07.121Z,35.70
2019-06-26T17:20:38.214Z,35.60
2019-06-26T17:23:09.330Z,35.60
2019-06-26T17:25:40.422Z,35.60
2019-06-26T17:28:12.626Z,35.40
2019-06-26T17:30:43.732Z,35.30
2019-06-26T17:33:15.028Z,35.20
2019-06-26T17:35:46.141Z,35.00
2019-06-26T17:38:17.295Z,34.90
2019-06-26T17:40:48.402Z,34.70
2019-06-26T17:43:19.576Z,34.60
2019-06-26T17:45:50.670Z,34.70
2019-06-26T17:48:21.793Z,34.60
2019-06-26T17:50:52.883Z,34.50
2019-06-26T17:53:24.024Z,34.40
2019-06-26T17:55:55.162Z,34.50
2019-06-26T17:58:26.295Z,34.40
2019-06-26T18:00:57.429Z,34.30
2019-06-26T18:03:28.530Z,34.30
2019-06-26T18:05:59.649Z,34.20
2019-06-26T18:08:30.781Z,34.20
2019-06-26T18:11:01.894Z,34.20
2019-06-26T18:13:33.038Z,33.90
2019-06-26T18:16:04.200Z,33.70
2019-06-26T18:18:35.375Z,33.70
2019-06-26T18:21:06.791Z,33.60
2019-06-26T18:23:38.713Z,33.50
2019-06-26T18:26:13.662Z,33.40
2019-06-26T18:28:42.816Z,33.10
2019-06-26T18:31:13.923Z,33.10
2019-06-26T18:33:45.073Z,33.10
2019-06-26T18:36:16.193Z,33.00
2019-06-26T18:38:47.384Z,32.90
2019-06-26T18:41:18.784Z,32.70
2019-06-26T18:43:50.009Z,32.60
2019-06-26T18:46:24.762Z,32.50
2019-06-26T18:48:53.996Z,32.40
2019-06-26T18:51:25.127Z,32.40
2019-06-26T18:53:56.253Z,32.20
2019-06-26T18:56:27.368Z,32.20
2019-06-26T18:58:58.591Z,32.10
2019-06-26T19:01:30.871Z,31.90
2019-06-26T19:04:02.275Z,31.90
2019-06-26T19:06:33.385Z,31.70
2019-06-26T19:09:06.142Z,31.80
2019-06-26T19:11:37.346Z,31.50
2019-06-26T19:14:08.649Z,31.40
2019-06-26T19:16:40.840Z,31.30
2019-06-26T19:19:12.537Z,31.20
2019-06-26T19:21:43.607Z,31.20
2019-06-26T19:24:14.750Z,31.10
2019-06-26T19:26:45.851Z,31.00
2019-06-26T19:29:16.976Z,31.10
2019-06-26T19:31:48.404Z,31.00
2019-06-26T19:34:19.584Z,31.00
2019-06-26T19:36:51.042Z,30.80
2019-06-26T19:39:22.192Z,30.80
2019-06-26T19:41:53.441Z,30.60
2019-06-26T19:44:24.761Z,30.70
2019-06-26T19:46:55.889Z,30.60
2019-06-26T19:49:27.321Z,30.40
2019-06-26T19:51:58.574Z,30.30
2019-06-26T19:54:32.351Z,30.20
2019-06-26T19:57:02.613Z,30.20
2019-06-26T19:59:34.742Z,30.10
2019-06-26T20:02:05.847Z,30.20
2019-06-26T20:04:37.382Z,30.10
2019-06-26T20:07:08.566Z,30.10
2019-06-26T20:09:41.070Z,30.00
2019-06-26T20:12:12.175Z,29.90
2019-06-26T20:14:43.842Z,29.90
2019-06-26T20:17:15.150Z,29.80
2019-06-26T20:19:46.296Z,29.80
2019-06-26T20:22:17.428Z,29.70
2019-06-26T20:24:48.560Z,29.90
2019-06-26T20:27:20.127Z,29.70
2019-06-26T20:29:51.326Z,29.60
2019-06-26T20:32:22.754Z,29.40
2019-06-26T20:34:54.204Z,29.30
2019-06-26T20:37:25.553Z,29.20
2019-06-26T20:39:56.748Z,29.30
2019-06-26T20:42:27.869Z,29.40
2019-06-26T20:44:59.073Z,29.50
2019-06-26T20:47:32.300Z,29.60
2019-06-26T20:50:03.594Z,29.40
2019-06-26T20:52:34.779Z,29.40
2019-06-26T20:55:05.987Z,29.50
2019-06-26T20:57:37.089Z,29.40
2019-06-26T21:00:09.872Z,29.20
2019-06-26T21:02:42.252Z,29.20
2019-06-26T21:05:13.731Z,29.20
2019-06-26T21:07:44.788Z,29.20
2019-06-26T21:10:16.256Z,29.10
2019-06-26T21:12:47.446Z,29.20
2019-06-26T21:15:18.885Z,29.00
2019-06-26T21:17:50.014Z,29.10
2019-06-26T21:20:21.143Z,29.00
2019-06-26T21:22:52.313Z,29.00
2019-06-26T21:25:23.474Z,28.90
2019-06-26T21:27:54.579Z,28.80
2019-06-26T21:30:25.723Z,28.80
2019-06-26T21:32:56.814Z,28.80
2019-06-26T21:35:27.949Z,28.60
2019-06-26T21:37:59.097Z,28.60
2019-06-26T21:40:30.251Z,28.60
2019-06-26T21:43:01.361Z,28.40
2019-06-26T21:45:33.017Z,28.40
2019-06-26T21:48:04.161Z,28.50
2019-06-26T21:50:35.314Z,28.40
2019-06-26T21:53:08.973Z,28.20
2019-06-26T21:55:41.746Z,28.10
2019-06-26T21:58:30.857Z,27.90
2019-06-26T22:01:19.974Z,27.90
2019-06-26T22:04:08.750Z,28.20
2019-06-26T22:06:41.651Z,28.30
2019-06-26T22:09:17.346Z,28.10
2019-06-26T22:11:48.568Z,27.90
2019-06-26T22:14:19.780Z,27.80
2019-06-26T22:16:50.996Z,27.70
2019-06-26T22:19:22.210Z,27.80
2019-06-26T22:21:53.468Z,27.60
2019-06-26T22:24:24.657Z,27.50
2019-06-26T22:26:55.798Z,27.40
2019-06-26T22:29:26.957Z,27.40
2019-06-26T22:31:58.098Z,27.30
2019-06-26T22:34:29.212Z,27.30
2019-06-26T22:37:00.379Z,27.20
2019-06-26T22:39:31.535Z,27.20
2019-06-26T22:42:02.690Z,27.10
2019-06-26T22:44:33.803Z,27.10
2019-06-26T22:47:04.959Z,27.30
2019-06-26T22:49:36.125Z,27.50
2019-06-26T22:52:07.282Z,27.70
2019-06-26T22:54:38.466Z,27.70
2019-06-26T22:57:09.625Z,27.30
2019-06-26T22:59:40.748Z,27.00
2019-06-26T23:02:11.967Z,27.10
2019-06-26T23:04:43.079Z,27.00
2019-06-26T23:07:14.238Z,26.90
2019-06-26T23:09:45.344Z,27.00
2019-06-26T23:12:16.486Z,27.10
2019-06-26T23:14:47.616Z,27.20
2019-06-26T23:17:18.803Z,27.30
2019-06-26T23:19:49.914Z,27.30
2019-06-26T23:22:21.071Z,27.10
2019-06-26T23:24:52.189Z,27.00
2019-06-26T23:27:23.528Z,27.00
2019-06-26T23:29:55.707Z,26.90
2019-06-26T23:32:26.880Z,26.70
2019-06-26T23:34:59.177Z,26.50
2019-06-26T23:37:30.322Z,26.60
2019-06-26T23:40:02.504Z,26.80
2019-06-26T23:42:33.639Z,27.00
2019-06-26T23:45:05.250Z,27.00
2019-06-26T23:47:36.394Z,27.00
2019-06-26T23:50:07.509Z,26.90
2019-06-26T23:52:38.681Z,26.90
2019-06-26T23:55:10.066Z,26.70
2019-06-26T23:57:57.910Z,26.60
